sensor_id;sensor_type;location;lat;lon;timestamp;temperature;humidity
13436;DHT22;6790;49.520;8.504;2023-01-04T00:01:09;5.30;99.90
13436;DHT22;6790;49.520;8.504;2023-01-04T00:03:36;5.40;99.90
13436;DHT22;6790;49.520;8.504;2023-01-04T00:06:04;5.20;99.90
13436;DHT22;6790;49.520;8.504;2023-01-04T00:08:30;5.20;99.90
13436;DHT22;6790;49.520;8.504;2023-01-04T00:11:01;5.20;99.90
13436;DHT22;6790;49.520;8.504;2023-01-04T00:13:29;5.30;99.90
13436;DHT22;6790;49.520;8.504;2023-01-04T00:15:55;5.30;99.90
13436;DHT22;6790;49.520;8.504;2023-01-04T00:18:21;5.30;99.90
13436;DHT22;6790;49.520;8.504;2023-01-04T00:20:47;5.30;99.90
13436;DHT22;6790;49.520;8.504;2023-01-04T00:23:12;5.30;99.90
13436;DHT22;6790;49.520;8.504;2023-01-04T00:25:38;5.30;99.90
13436;DHT22;6790;49.520;8.504;2023-01-04T00:28:04;5.30;99.90
13436;DHT22;6790;49.520;8.504;2023-01-04T00:30:30;5.10;99.90
13436;DHT22;6790;49.520;8.504;2023-01-04T00:32:58;5.00;99.90
13436;DHT22;6790;49.520;8.504;2023-01-04T00:35:24;5.00;99.90
13436;DHT22;6790;49.520;8.504;2023-01-04T00:37:50;5.10;99.90
13436;DHT22;6790;49.520;8.504;2023-01-04T00:40:16;5.00;99.90
13436;DHT22;6790;49.520;8.504;2023-01-04T00:42:42;4.90;99.90
13436;DHT22;6790;49.520;8.504;2023-01-04T00:45:08;5.00;99.90
13436;DHT22;6790;49.520;8.504;2023-01-04T00:47:34;5.00;99.90
13436;DHT22;6790;49.520;8.504;2023-01-04T00:50:00;5.00;99.90
13436;DHT22;6790;49.520;8.504;2023-01-04T00:52:25;5.10;99.90
13436;DHT22;6790;49.520;8.504;2023-01-04T00:54:51;5.20;99.90
13436;DHT22;6790;49.520;8.504;2023-01-04T00:57:17;5.20;99.90
13436;DHT22;6790;49.520;8.504;2023-01-04T00:59:42;5.20;99.90
13436;DHT22;6790;49.520;8.504;2023-01-04T01:02:08;5.20;99.90
13436;DHT22;6790;49.520;8.504;2023-01-04T01:04:34;5.10;99.90
13436;DHT22;6790;49.520;8.504;2023-01-04T01:07:00;5.20;99.90
13436;DHT22;6790;49.520;8.504;2023-01-04T01:09:26;5.20;99.90
13436;DHT22;6790;49.520;8.504;2023-01-04T01:11:52;5.20;99.90
13436;DHT22;6790;49.520;8.504;2023-01-04T01:14:22;5.20;99.90
13436;DHT22;6790;49.520;8.504;2023-01-04T01:16:49;5.20;99.90
13436;DHT22;6790;49.520;8.504;2023-01-04T01:19:15;5.10;99.90
13436;DHT22;6790;49.520;8.504;2023-01-04T01:21:41;5.20;99.90
13436;DHT22;6790;49.520;8.504;2023-01-04T01:24:14;5.30;99.90
13436;DHT22;6790;49.520;8.504;2023-01-04T01:26:40;5.30;99.90
13436;DHT22;6790;49.520;8.504;2023-01-04T01:29:06;5.20;99.90
13436;DHT22;6790;49.520;8.504;2023-01-04T01:31:32;5.30;99.90
13436;DHT22;6790;49.520;8.504;2023-01-04T01:33:57;5.20;99.90
13436;DHT22;6790;49.520;8.504;2023-01-04T01:36:25;5.20;99.90
13436;DHT22;6790;49.520;8.504;2023-01-04T01:38:51;5.20;99.90
13436;DHT22;6790;49.520;8.504;2023-01-04T01:41:28;5.20;99.90
13436;DHT22;6790;49.520;8.504;2023-01-04T01:49:24;5.30;99.90
13436;DHT22;6790;49.520;8.504;2023-01-04T01:51:53;5.20;99.90
13436;DHT22;6790;49.520;8.504;2023-01-04T01:54:24;5.20;99.90
13436;DHT22;6790;49.520;8.504;2023-01-04T01:56:54;5.10;99.90
13436;DHT22;6790;49.520;8.504;2023-01-04T01:59:21;5.10;99.90
13436;DHT22;6790;49.520;8.504;2023-01-04T02:01:47;5.20;99.90
13436;DHT22;6790;49.520;8.504;2023-01-04T02:04:14;5.10;99.90
13436;DHT22;6790;49.520;8.504;2023-01-04T02:06:44;5.00;99.90
13436;DHT22;6790;49.520;8.504;2023-01-04T02:09:13;5.10;99.90
13436;DHT22;6790;49.520;8.504;2023-01-04T02:11:40;5.10;99.90
13436;DHT22;6790;49.520;8.504;2023-01-04T02:14:07;5.10;99.90
13436;DHT22;6790;49.520;8.504;2023-01-04T02:25:40;5.20;99.90
13436;DHT22;6790;49.520;8.504;2023-01-04T02:37:06;5.30;99.90
13436;DHT22;6790;49.520;8.504;2023-01-04T02:43:25;5.40;99.90
13436;DHT22;6790;49.520;8.504;2023-01-04T02:46:16;5.40;99.90
13436;DHT22;6790;49.520;8.504;2023-01-04T02:48:48;5.30;99.90
13436;DHT22;6790;49.520;8.504;2023-01-04T02:51:35;5.30;99.90
13436;DHT22;6790;49.520;8.504;2023-01-04T02:54:14;5.30;99.90
13436;DHT22;6790;49.520;8.504;2023-01-04T02:56:58;5.20;99.90
13436;DHT22;6790;49.520;8.504;2023-01-04T03:08:35;5.20;99.90
13436;DHT22;6790;49.520;8.504;2023-01-04T03:11:06;5.30;99.90
13436;DHT22;6790;49.520;8.504;2023-01-04T03:14:26;5.20;99.90
13436;DHT22;6790;49.520;8.504;2023-01-04T03:16:55;5.30;99.90
13436;DHT22;6790;49.520;8.504;2023-01-04T03:19:23;5.30;99.90
13436;DHT22;6790;49.520;8.504;2023-01-04T03:22:43;5.40;99.90
13436;DHT22;6790;49.520;8.504;2023-01-04T03:25:38;5.40;99.90
13436;DHT22;6790;49.520;8.504;2023-01-04T03:28:27;5.40;99.90
13436;DHT22;6790;49.520;8.504;2023-01-04T03:31:31;5.40;99.90
13436;DHT22;6790;49.520;8.504;2023-01-04T03:34:16;5.50;99.90
13436;DHT22;6790;49.520;8.504;2023-01-04T03:49:40;5.50;99.90
13436;DHT22;6790;49.520;8.504;2023-01-04T03:52:11;5.50;99.90
13436;DHT22;6790;49.520;8.504;2023-01-04T03:54:40;5.50;99.90
13436;DHT22;6790;49.520;8.504;2023-01-04T03:57:09;5.50;99.90
13436;DHT22;6790;49.520;8.504;2023-01-04T03:59:42;5.60;99.90
13436;DHT22;6790;49.520;8.504;2023-01-04T04:02:12;5.60;99.90
13436;DHT22;6790;49.520;8.504;2023-01-04T04:04:40;5.60;99.90
13436;DHT22;6790;49.520;8.504;2023-01-04T04:07:24;5.60;99.90
13436;DHT22;6790;49.520;8.504;2023-01-04T04:10:08;5.60;99.90
13436;DHT22;6790;49.520;8.504;2023-01-04T04:12:34;5.60;99.90
13436;DHT22;6790;49.520;8.504;2023-01-04T04:15:00;5.60;99.90
13436;DHT22;6790;49.520;8.504;2023-01-04T04:17:25;5.60;99.90
13436;DHT22;6790;49.520;8.504;2023-01-04T04:19:51;5.60;99.90
13436;DHT22;6790;49.520;8.504;2023-01-04T04:22:17;5.70;99.90
13436;DHT22;6790;49.520;8.504;2023-01-04T04:24:42;5.70;99.90
13436;DHT22;6790;49.520;8.504;2023-01-04T04:27:08;5.70;99.90
13436;DHT22;6790;49.520;8.504;2023-01-04T04:29:34;5.70;99.90
13436;DHT22;6790;49.520;8.504;2023-01-04T04:32:00;5.70;99.90
13436;DHT22;6790;49.520;8.504;2023-01-04T04:34:25;5.70;99.90
13436;DHT22;6790;49.520;8.504;2023-01-04T04:36:51;5.70;99.90
13436;DHT22;6790;49.520;8.504;2023-01-04T04:39:17;5.80;99.90
13436;DHT22;6790;49.520;8.504;2023-01-04T04:41:43;5.80;99.90
13436;DHT22;6790;49.520;8.504;2023-01-04T04:46:35;5.80;99.90
13436;DHT22;6790;49.520;8.504;2023-01-04T04:49:01;5.80;99.90
13436;DHT22;6790;49.520;8.504;2023-01-04T04:51:28;5.70;99.90
13436;DHT22;6790;49.520;8.504;2023-01-04T04:53:53;5.80;99.90
13436;DHT22;6790;49.520;8.504;2023-01-04T04:56:19;5.70;99.90
13436;DHT22;6790;49.520;8.504;2023-01-04T04:58:45;5.70;99.90
13436;DHT22;6790;49.520;8.504;2023-01-04T05:01:11;5.60;99.90
13436;DHT22;6790;49.520;8.504;2023-01-04T05:03:37;5.60;99.90
13436;DHT22;6790;49.520;8.504;2023-01-04T05:06:03;5.60;99.90
13436;DHT22;6790;49.520;8.504;2023-01-04T05:08:29;5.60;99.90
13436;DHT22;6790;49.520;8.504;2023-01-04T05:10:55;5.60;99.90
13436;DHT22;6790;49.520;8.504;2023-01-04T05:13:20;5.60;99.90
13436;DHT22;6790;49.520;8.504;2023-01-04T05:15:48;5.60;99.90
13436;DHT22;6790;49.520;8.504;2023-01-04T05:18:17;5.60;99.90
13436;DHT22;6790;49.520;8.504;2023-01-04T05:20:44;5.60;99.90
13436;DHT22;6790;49.520;8.504;2023-01-04T05:23:11;5.60;99.90
13436;DHT22;6790;49.520;8.504;2023-01-04T05:25:40;5.60;99.90
13436;DHT22;6790;49.520;8.504;2023-01-04T05:28:06;5.60;99.90
13436;DHT22;6790;49.520;8.504;2023-01-04T05:30:32;5.60;99.90
13436;DHT22;6790;49.520;8.504;2023-01-04T05:33:18;5.60;99.90
13436;DHT22;6790;49.520;8.504;2023-01-04T05:35:55;5.60;99.90
13436;DHT22;6790;49.520;8.504;2023-01-04T05:38:23;5.70;99.90
13436;DHT22;6790;49.520;8.504;2023-01-04T05:40:49;5.70;99.90
13436;DHT22;6790;49.520;8.504;2023-01-04T05:43:16;5.70;99.90
13436;DHT22;6790;49.520;8.504;2023-01-04T05:45:47;5.80;99.90
13436;DHT22;6790;49.520;8.504;2023-01-04T05:48:14;5.80;99.90
13436;DHT22;6790;49.520;8.504;2023-01-04T05:50:40;5.80;99.90
13436;DHT22;6790;49.520;8.504;2023-01-04T05:53:06;5.90;99.90
13436;DHT22;6790;49.520;8.504;2023-01-04T05:55:32;5.90;99.90
13436;DHT22;6790;49.520;8.504;2023-01-04T05:57:58;5.90;99.90
13436;DHT22;6790;49.520;8.504;2023-01-04T06:00:24;6.00;99.90
13436;DHT22;6790;49.520;8.504;2023-01-04T06:02:50;6.00;99.90
13436;DHT22;6790;49.520;8.504;2023-01-04T06:05:20;6.10;99.90
13436;DHT22;6790;49.520;8.504;2023-01-04T06:07:46;6.10;99.90
13436;DHT22;6790;49.520;8.504;2023-01-04T06:10:12;6.10;99.90
13436;DHT22;6790;49.520;8.504;2023-01-04T06:12:39;6.10;99.90
13436;DHT22;6790;49.520;8.504;2023-01-04T06:15:05;6.10;99.90
13436;DHT22;6790;49.520;8.504;2023-01-04T06:17:32;6.10;99.90
13436;DHT22;6790;49.520;8.504;2023-01-04T06:19:58;6.10;99.90
13436;DHT22;6790;49.520;8.504;2023-01-04T06:22:24;6.20;99.90
13436;DHT22;6790;49.520;8.504;2023-01-04T06:24:51;6.20;99.90
13436;DHT22;6790;49.520;8.504;2023-01-04T06:27:17;6.20;99.90
13436;DHT22;6790;49.520;8.504;2023-01-04T06:29:43;6.30;99.90
13436;DHT22;6790;49.520;8.504;2023-01-04T06:32:09;6.30;99.90
13436;DHT22;6790;49.520;8.504;2023-01-04T06:34:35;6.30;99.90
13436;DHT22;6790;49.520;8.504;2023-01-04T06:37:01;6.40;99.90
13436;DHT22;6790;49.520;8.504;2023-01-04T06:39:27;6.40;99.90
13436;DHT22;6790;49.520;8.504;2023-01-04T06:41:53;6.40;99.90
13436;DHT22;6790;49.520;8.504;2023-01-04T06:44:19;6.50;99.90
13436;DHT22;6790;49.520;8.504;2023-01-04T06:46:45;6.50;99.90
13436;DHT22;6790;49.520;8.504;2023-01-04T06:49:10;6.50;99.90
13436;DHT22;6790;49.520;8.504;2023-01-04T06:51:36;6.50;99.90
13436;DHT22;6790;49.520;8.504;2023-01-04T06:54:02;6.50;99.90
13436;DHT22;6790;49.520;8.504;2023-01-04T06:56:28;6.60;99.90
13436;DHT22;6790;49.520;8.504;2023-01-04T06:58:55;6.60;99.90
13436;DHT22;6790;49.520;8.504;2023-01-04T07:01:20;6.60;99.90
13436;DHT22;6790;49.520;8.504;2023-01-04T07:03:46;6.60;99.90
13436;DHT22;6790;49.520;8.504;2023-01-04T07:06:12;6.70;99.90
13436;DHT22;6790;49.520;8.504;2023-01-04T07:08:37;6.70;99.90
13436;DHT22;6790;49.520;8.504;2023-01-04T07:11:03;6.70;99.90
13436;DHT22;6790;49.520;8.504;2023-01-04T07:13:29;6.70;99.90
13436;DHT22;6790;49.520;8.504;2023-01-04T07:15:55;6.80;99.90
13436;DHT22;6790;49.520;8.504;2023-01-04T07:18:20;6.80;99.90
13436;DHT22;6790;49.520;8.504;2023-01-04T07:20:46;6.80;99.90
13436;DHT22;6790;49.520;8.504;2023-01-04T07:23:12;6.80;99.90
13436;DHT22;6790;49.520;8.504;2023-01-04T07:25:37;6.80;99.90
13436;DHT22;6790;49.520;8.504;2023-01-04T07:28:03;6.90;99.90
13436;DHT22;6790;49.520;8.504;2023-01-04T07:30:29;6.90;99.90
13436;DHT22;6790;49.520;8.504;2023-01-04T07:32:55;6.90;99.90
13436;DHT22;6790;49.520;8.504;2023-01-04T07:35:22;7.00;99.90
13436;DHT22;6790;49.520;8.504;2023-01-04T07:37:49;7.00;99.90
13436;DHT22;6790;49.520;8.504;2023-01-04T07:40:15;7.00;99.90
13436;DHT22;6790;49.520;8.504;2023-01-04T07:42:40;7.10;99.90
13436;DHT22;6790;49.520;8.504;2023-01-04T07:45:06;7.10;99.90
13436;DHT22;6790;49.520;8.504;2023-01-04T07:47:33;7.10;99.90
13436;DHT22;6790;49.520;8.504;2023-01-04T07:49:58;7.10;99.90
13436;DHT22;6790;49.520;8.504;2023-01-04T07:52:25;7.20;99.90
13436;DHT22;6790;49.520;8.504;2023-01-04T07:54:52;7.20;99.90
13436;DHT22;6790;49.520;8.504;2023-01-04T07:57:17;7.20;99.90
13436;DHT22;6790;49.520;8.504;2023-01-04T07:59:43;7.20;99.90
13436;DHT22;6790;49.520;8.504;2023-01-04T08:02:10;7.20;99.90
13436;DHT22;6790;49.520;8.504;2023-01-04T08:04:36;7.20;99.90
13436;DHT22;6790;49.520;8.504;2023-01-04T08:07:02;7.30;99.90
13436;DHT22;6790;49.520;8.504;2023-01-04T08:09:27;7.30;99.90
13436;DHT22;6790;49.520;8.504;2023-01-04T08:11:53;7.30;99.90
13436;DHT22;6790;49.520;8.504;2023-01-04T08:14:19;7.40;99.90
13436;DHT22;6790;49.520;8.504;2023-01-04T08:16:44;7.40;99.90
13436;DHT22;6790;49.520;8.504;2023-01-04T08:19:14;7.40;99.90
13436;DHT22;6790;49.520;8.504;2023-01-04T08:21:42;7.40;99.90
13436;DHT22;6790;49.520;8.504;2023-01-04T08:24:13;7.40;99.90
13436;DHT22;6790;49.520;8.504;2023-01-04T08:26:40;7.40;99.90
13436;DHT22;6790;49.520;8.504;2023-01-04T08:29:07;7.40;99.90
13436;DHT22;6790;49.520;8.504;2023-01-04T08:31:33;7.50;99.90
13436;DHT22;6790;49.520;8.504;2023-01-04T08:34:03;7.50;99.90
13436;DHT22;6790;49.520;8.504;2023-01-04T08:36:35;7.50;99.90
13436;DHT22;6790;49.520;8.504;2023-01-04T08:39:08;7.50;99.90
13436;DHT22;6790;49.520;8.504;2023-01-04T08:41:34;7.60;99.90
13436;DHT22;6790;49.520;8.504;2023-01-04T08:44:15;7.60;99.90
13436;DHT22;6790;49.520;8.504;2023-01-04T08:46:45;7.60;99.90
13436;DHT22;6790;49.520;8.504;2023-01-04T08:49:11;7.60;99.90
13436;DHT22;6790;49.520;8.504;2023-01-04T08:51:36;7.60;99.90
13436;DHT22;6790;49.520;8.504;2023-01-04T08:54:03;7.70;99.90
13436;DHT22;6790;49.520;8.504;2023-01-04T08:56:28;7.70;99.90
13436;DHT22;6790;49.520;8.504;2023-01-04T08:58:54;7.80;99.90
13436;DHT22;6790;49.520;8.504;2023-01-04T09:01:20;7.80;99.90
13436;DHT22;6790;49.520;8.504;2023-01-04T09:03:46;7.80;99.90
13436;DHT22;6790;49.520;8.504;2023-01-04T09:06:13;7.80;99.90
13436;DHT22;6790;49.520;8.504;2023-01-04T09:08:41;7.90;99.90
13436;DHT22;6790;49.520;8.504;2023-01-04T09:11:12;7.90;99.90
13436;DHT22;6790;49.520;8.504;2023-01-04T09:13:39;7.80;99.90
13436;DHT22;6790;49.520;8.504;2023-01-04T09:16:08;7.90;99.90
13436;DHT22;6790;49.520;8.504;2023-01-04T09:18:36;7.90;99.90
13436;DHT22;6790;49.520;8.504;2023-01-04T09:21:10;7.90;99.90
13436;DHT22;6790;49.520;8.504;2023-01-04T09:23:40;7.90;99.90
13436;DHT22;6790;49.520;8.504;2023-01-04T09:26:14;7.90;99.90
13436;DHT22;6790;49.520;8.504;2023-01-04T09:28:41;7.90;99.90
13436;DHT22;6790;49.520;8.504;2023-01-04T09:31:14;8.00;99.90
13436;DHT22;6790;49.520;8.504;2023-01-04T09:33:42;8.00;99.90
13436;DHT22;6790;49.520;8.504;2023-01-04T09:36:11;8.00;99.90
13436;DHT22;6790;49.520;8.504;2023-01-04T09:38:39;8.10;99.90
13436;DHT22;6790;49.520;8.504;2023-01-04T09:41:19;8.10;99.90
13436;DHT22;6790;49.520;8.504;2023-01-04T09:43:48;8.10;99.90
13436;DHT22;6790;49.520;8.504;2023-01-04T09:46:57;8.10;99.90
13436;DHT22;6790;49.520;8.504;2023-01-04T09:49:28;8.10;99.90
13436;DHT22;6790;49.520;8.504;2023-01-04T09:54:55;8.20;99.90
13436;DHT22;6790;49.520;8.504;2023-01-04T09:57:26;8.20;99.90
13436;DHT22;6790;49.520;8.504;2023-01-04T09:59:58;8.20;99.90
13436;DHT22;6790;49.520;8.504;2023-01-04T10:02:55;8.30;99.90
13436;DHT22;6790;49.520;8.504;2023-01-04T10:05:26;8.30;99.90
13436;DHT22;6790;49.520;8.504;2023-01-04T10:07:53;8.30;99.90
13436;DHT22;6790;49.520;8.504;2023-01-04T10:10:51;8.40;99.90
13436;DHT22;6790;49.520;8.504;2023-01-04T10:14:10;8.40;99.90
13436;DHT22;6790;49.520;8.504;2023-01-04T10:17:02;8.40;99.90
13436;DHT22;6790;49.520;8.504;2023-01-04T10:22:47;8.40;99.90
13436;DHT22;6790;49.520;8.504;2023-01-04T10:25:47;8.40;99.90
13436;DHT22;6790;49.520;8.504;2023-01-04T10:28:44;8.40;99.90
13436;DHT22;6790;49.520;8.504;2023-01-04T10:31:19;8.50;99.90
13436;DHT22;6790;49.520;8.504;2023-01-04T10:33:57;8.50;99.90
13436;DHT22;6790;49.520;8.504;2023-01-04T10:36:30;8.50;99.90
13436;DHT22;6790;49.520;8.504;2023-01-04T10:39:13;8.50;99.90
13436;DHT22;6790;49.520;8.504;2023-01-04T10:41:49;8.50;99.90
13436;DHT22;6790;49.520;8.504;2023-01-04T10:47:28;8.50;99.90
13436;DHT22;6790;49.520;8.504;2023-01-04T10:50:24;8.60;99.90
13436;DHT22;6790;49.520;8.504;2023-01-04T10:53:01;8.50;99.90
13436;DHT22;6790;49.520;8.504;2023-01-04T10:55:43;8.60;99.90
13436;DHT22;6790;49.520;8.504;2023-01-04T10:58:21;8.60;99.90
13436;DHT22;6790;49.520;8.504;2023-01-04T11:00:58;8.60;99.90
13436;DHT22;6790;49.520;8.504;2023-01-04T11:06:19;8.60;99.90
13436;DHT22;6790;49.520;8.504;2023-01-04T11:08:58;8.60;99.90
13436;DHT22;6790;49.520;8.504;2023-01-04T11:11:33;8.60;99.90
13436;DHT22;6790;49.520;8.504;2023-01-04T11:14:07;8.70;99.90
13436;DHT22;6790;49.520;8.504;2023-01-04T11:16:34;8.70;99.90
13436;DHT22;6790;49.520;8.504;2023-01-04T11:19:01;8.70;99.90
13436;DHT22;6790;49.520;8.504;2023-01-04T11:21:32;8.80;99.90
13436;DHT22;6790;49.520;8.504;2023-01-04T11:24:16;8.80;99.90
13436;DHT22;6790;49.520;8.504;2023-01-04T11:26:44;8.80;99.90
13436;DHT22;6790;49.520;8.504;2023-01-04T11:29:30;8.80;99.90
13436;DHT22;6790;49.520;8.504;2023-01-04T11:32:04;8.80;99.90
13436;DHT22;6790;49.520;8.504;2023-01-04T11:34:47;8.80;99.90
13436;DHT22;6790;49.520;8.504;2023-01-04T11:39:49;8.80;99.90
13436;DHT22;6790;49.520;8.504;2023-01-04T11:42:21;8.90;99.90
13436;DHT22;6790;49.520;8.504;2023-01-04T11:44:59;8.90;99.90
13436;DHT22;6790;49.520;8.504;2023-01-04T11:47:24;8.90;99.90
13436;DHT22;6790;49.520;8.504;2023-01-04T11:49:53;9.00;99.90
13436;DHT22;6790;49.520;8.504;2023-01-04T11:52:34;9.00;99.90
13436;DHT22;6790;49.520;8.504;2023-01-04T11:55:23;9.10;99.90
13436;DHT22;6790;49.520;8.504;2023-01-04T11:58:11;9.20;99.90
13436;DHT22;6790;49.520;8.504;2023-01-04T12:03:25;9.20;99.90
13436;DHT22;6790;49.520;8.504;2023-01-04T12:05:51;9.30;99.90
13436;DHT22;6790;49.520;8.504;2023-01-04T12:08:31;9.30;99.90
13436;DHT22;6790;49.520;8.504;2023-01-04T12:11:00;9.40;99.90
13436;DHT22;6790;49.520;8.504;2023-01-04T12:13:28;9.40;99.90
13436;DHT22;6790;49.520;8.504;2023-01-04T12:18:39;9.50;99.90
13436;DHT22;6790;49.520;8.504;2023-01-04T12:21:13;9.60;99.90
13436;DHT22;6790;49.520;8.504;2023-01-04T12:23:42;9.60;99.90
13436;DHT22;6790;49.520;8.504;2023-01-04T12:26:10;9.60;99.90
13436;DHT22;6790;49.520;8.504;2023-01-04T12:28:39;9.60;99.90
13436;DHT22;6790;49.520;8.504;2023-01-04T12:33:47;9.70;99.90
13436;DHT22;6790;49.520;8.504;2023-01-04T12:47:03;9.90;99.90
13436;DHT22;6790;49.520;8.504;2023-01-04T12:49:52;9.90;99.90
13436;DHT22;6790;49.520;8.504;2023-01-04T12:54:52;9.90;99.90
13436;DHT22;6790;49.520;8.504;2023-01-04T12:57:43;9.90;99.90
13436;DHT22;6790;49.520;8.504;2023-01-04T13:00:13;9.90;99.90
13436;DHT22;6790;49.520;8.504;2023-01-04T13:02:41;9.90;99.90
13436;DHT22;6790;49.520;8.504;2023-01-04T13:07:46;9.90;99.90
13436;DHT22;6790;49.520;8.504;2023-01-04T13:10:32;10.00;99.90
13436;DHT22;6790;49.520;8.504;2023-01-04T13:16:14;10.00;99.90
13436;DHT22;6790;49.520;8.504;2023-01-04T13:18:56;10.00;99.90
13436;DHT22;6790;49.520;8.504;2023-01-04T13:21:43;10.00;99.90
13436;DHT22;6790;49.520;8.504;2023-01-04T13:24:37;10.00;99.90
13436;DHT22;6790;49.520;8.504;2023-01-04T13:27:21;10.00;99.90
13436;DHT22;6790;49.520;8.504;2023-01-04T13:29:48;10.00;99.90
13436;DHT22;6790;49.520;8.504;2023-01-04T13:32:41;10.00;99.90
13436;DHT22;6790;49.520;8.504;2023-01-04T13:37:41;9.80;99.90
13436;DHT22;6790;49.520;8.504;2023-01-04T13:40:24;9.90;99.90
13436;DHT22;6790;49.520;8.504;2023-01-04T13:48:11;9.60;99.90
13436;DHT22;6790;49.520;8.504;2023-01-04T13:50:43;9.60;99.90
13436;DHT22;6790;49.520;8.504;2023-01-04T13:53:21;9.60;99.90
13436;DHT22;6790;49.520;8.504;2023-01-04T13:55:53;9.50;99.90
13436;DHT22;6790;49.520;8.504;2023-01-04T13:58:23;9.60;99.90
13436;DHT22;6790;49.520;8.504;2023-01-04T14:01:19;9.60;99.90
13436;DHT22;6790;49.520;8.504;2023-01-04T14:03:58;9.60;99.90
13436;DHT22;6790;49.520;8.504;2023-01-04T14:06:32;9.60;99.90
13436;DHT22;6790;49.520;8.504;2023-01-04T14:30:51;9.90;99.90
13436;DHT22;6790;49.520;8.504;2023-01-04T14:33:20;9.90;99.90
13436;DHT22;6790;49.520;8.504;2023-01-04T14:38:36;10.00;99.90
13436;DHT22;6790;49.520;8.504;2023-01-04T14:41:33;10.00;99.90
13436;DHT22;6790;49.520;8.504;2023-01-04T14:44:11;10.00;99.90
13436;DHT22;6790;49.520;8.504;2023-01-04T14:46:53;10.10;99.90
13436;DHT22;6790;49.520;8.504;2023-01-04T14:49:20;10.10;99.90
13436;DHT22;6790;49.520;8.504;2023-01-04T14:51:50;10.10;99.90
13436;DHT22;6790;49.520;8.504;2023-01-04T14:54:19;10.20;99.90
13436;DHT22;6790;49.520;8.504;2023-01-04T14:56:46;10.20;99.90
13436;DHT22;6790;49.520;8.504;2023-01-04T14:59:12;10.30;99.90
13436;DHT22;6790;49.520;8.504;2023-01-04T15:01:38;10.30;99.90
13436;DHT22;6790;49.520;8.504;2023-01-04T15:04:04;10.30;99.90
13436;DHT22;6790;49.520;8.504;2023-01-04T15:06:31;10.30;99.90
13436;DHT22;6790;49.520;8.504;2023-01-04T15:08:58;10.30;99.90
13436;DHT22;6790;49.520;8.504;2023-01-04T15:11:23;10.30;99.90
13436;DHT22;6790;49.520;8.504;2023-01-04T15:13:49;10.30;99.90
13436;DHT22;6790;49.520;8.504;2023-01-04T15:16:16;10.30;99.90
13436;DHT22;6790;49.520;8.504;2023-01-04T15:18:43;10.30;99.90
13436;DHT22;6790;49.520;8.504;2023-01-04T15:21:10;10.30;99.90
13436;DHT22;6790;49.520;8.504;2023-01-04T15:23:36;10.30;99.90
13436;DHT22;6790;49.520;8.504;2023-01-04T15:26:06;10.30;99.90
13436;DHT22;6790;49.520;8.504;2023-01-04T15:28:34;10.40;99.90
13436;DHT22;6790;49.520;8.504;2023-01-04T15:31:03;10.40;99.90
13436;DHT22;6790;49.520;8.504;2023-01-04T15:33:30;10.40;99.90
13436;DHT22;6790;49.520;8.504;2023-01-04T15:36:05;10.40;99.90
13436;DHT22;6790;49.520;8.504;2023-01-04T15:38:35;10.30;99.90
13436;DHT22;6790;49.520;8.504;2023-01-04T15:41:06;10.30;99.90
13436;DHT22;6790;49.520;8.504;2023-01-04T15:43:35;10.30;99.90
13436;DHT22;6790;49.520;8.504;2023-01-04T15:46:03;10.20;99.90
13436;DHT22;6790;49.520;8.504;2023-01-04T15:48:32;10.30;99.90
13436;DHT22;6790;49.520;8.504;2023-01-04T15:51:02;10.20;99.90
13436;DHT22;6790;49.520;8.504;2023-01-04T15:53:29;10.20;99.90
13436;DHT22;6790;49.520;8.504;2023-01-04T15:56:03;10.20;99.90
13436;DHT22;6790;49.520;8.504;2023-01-04T15:58:31;10.20;99.90
13436;DHT22;6790;49.520;8.504;2023-01-04T16:00:56;10.20;99.90
13436;DHT22;6790;49.520;8.504;2023-01-04T16:03:22;10.20;99.90
13436;DHT22;6790;49.520;8.504;2023-01-04T16:05:47;10.20;99.90
13436;DHT22;6790;49.520;8.504;2023-01-04T16:08:14;10.20;99.90
13436;DHT22;6790;49.520;8.504;2023-01-04T16:10:40;10.20;99.90
13436;DHT22;6790;49.520;8.504;2023-01-04T16:13:05;10.20;99.90
13436;DHT22;6790;49.520;8.504;2023-01-04T16:15:31;10.20;99.90
13436;DHT22;6790;49.520;8.504;2023-01-04T16:17:57;10.20;99.90
13436;DHT22;6790;49.520;8.504;2023-01-04T16:20:22;10.30;99.90
13436;DHT22;6790;49.520;8.504;2023-01-04T16:22:48;10.30;99.90
13436;DHT22;6790;49.520;8.504;2023-01-04T16:25:14;10.20;99.90
13436;DHT22;6790;49.520;8.504;2023-01-04T16:27:40;10.30;99.90
13436;DHT22;6790;49.520;8.504;2023-01-04T16:30:09;10.30;99.90
13436;DHT22;6790;49.520;8.504;2023-01-04T16:32:40;10.20;99.90
13436;DHT22;6790;49.520;8.504;2023-01-04T16:35:07;10.20;99.90
13436;DHT22;6790;49.520;8.504;2023-01-04T16:37:33;10.20;99.90
13436;DHT22;6790;49.520;8.504;2023-01-04T16:39:58;10.20;99.90
13436;DHT22;6790;49.520;8.504;2023-01-04T16:42:24;10.20;99.90
13436;DHT22;6790;49.520;8.504;2023-01-04T16:44:50;10.20;99.90
13436;DHT22;6790;49.520;8.504;2023-01-04T16:47:16;10.20;99.90
13436;DHT22;6790;49.520;8.504;2023-01-04T16:49:41;10.20;99.90
13436;DHT22;6790;49.520;8.504;2023-01-04T16:52:08;10.20;99.90
13436;DHT22;6790;49.520;8.504;2023-01-04T16:54:36;10.20;99.90
13436;DHT22;6790;49.520;8.504;2023-01-04T16:57:02;10.10;99.90
13436;DHT22;6790;49.520;8.504;2023-01-04T16:59:27;10.10;99.90
13436;DHT22;6790;49.520;8.504;2023-01-04T17:01:53;10.10;99.90
13436;DHT22;6790;49.520;8.504;2023-01-04T17:04:19;10.10;99.90
13436;DHT22;6790;49.520;8.504;2023-01-04T17:06:46;10.20;99.90
13436;DHT22;6790;49.520;8.504;2023-01-04T17:09:17;10.20;99.90
13436;DHT22;6790;49.520;8.504;2023-01-04T17:11:44;10.20;99.90
13436;DHT22;6790;49.520;8.504;2023-01-04T17:14:24;10.10;99.90
13436;DHT22;6790;49.520;8.504;2023-01-04T17:16:51;10.10;99.90
13436;DHT22;6790;49.520;8.504;2023-01-04T17:19:17;10.10;99.90
13436;DHT22;6790;49.520;8.504;2023-01-04T17:21:44;10.00;99.90
13436;DHT22;6790;49.520;8.504;2023-01-04T17:24:10;10.10;99.90
13436;DHT22;6790;49.520;8.504;2023-01-04T17:26:37;10.00;99.90
13436;DHT22;6790;49.520;8.504;2023-01-04T17:29:03;10.00;99.90
13436;DHT22;6790;49.520;8.504;2023-01-04T17:31:34;10.00;99.90
13436;DHT22;6790;49.520;8.504;2023-01-04T17:34:01;10.00;99.90
13436;DHT22;6790;49.520;8.504;2023-01-04T17:36:27;9.90;99.90
13436;DHT22;6790;49.520;8.504;2023-01-04T17:38:53;9.90;99.90
13436;DHT22;6790;49.520;8.504;2023-01-04T17:41:24;9.90;99.90
13436;DHT22;6790;49.520;8.504;2023-01-04T17:43:54;9.80;99.90
13436;DHT22;6790;49.520;8.504;2023-01-04T17:46:22;9.80;99.90
13436;DHT22;6790;49.520;8.504;2023-01-04T17:48:50;9.80;99.90
13436;DHT22;6790;49.520;8.504;2023-01-04T17:51:18;9.80;99.90
13436;DHT22;6790;49.520;8.504;2023-01-04T17:53:53;9.80;99.90
13436;DHT22;6790;49.520;8.504;2023-01-04T17:56:21;9.80;99.90
13436;DHT22;6790;49.520;8.504;2023-01-04T17:58:47;9.80;99.90
13436;DHT22;6790;49.520;8.504;2023-01-04T18:01:16;9.90;99.90
13436;DHT22;6790;49.520;8.504;2023-01-04T18:03:45;9.90;99.90
13436;DHT22;6790;49.520;8.504;2023-01-04T18:06:14;9.90;99.90
13436;DHT22;6790;49.520;8.504;2023-01-04T18:08:40;9.90;99.90
13436;DHT22;6790;49.520;8.504;2023-01-04T18:11:07;9.80;99.90
13436;DHT22;6790;49.520;8.504;2023-01-04T18:13:34;9.80;99.90
13436;DHT22;6790;49.520;8.504;2023-01-04T18:16:03;9.80;99.90
13436;DHT22;6790;49.520;8.504;2023-01-04T18:18:30;9.80;99.90
13436;DHT22;6790;49.520;8.504;2023-01-04T18:20:56;9.80;99.90
13436;DHT22;6790;49.520;8.504;2023-01-04T18:23:22;9.80;99.90